LFSTLIBP

Guest
Details From LFST - Entzheim
To LIBP - Pescara
Flight Number -
Tags Generated
Created
Modified
Stats Distance 459 nm / 851 km
Max Altitude 0 ft / 0 m
Waypoints 4
Social Downloads 3
Likes 0
Share VATSIM

Download

Looking for another format? Having issues loading an existing format? Contact us
Advertisement - Login to hide

Notes

Generated

Route

LFST ADOSA PES LIBP

ID Type Via Altitude Latitude Longitude Leg Dist Tot Dist Heading (true) Name
O LFST APT - 0 ft / 0 m 48.53118˚ 7.61607˚ - 0 nm - -
ADOSA FIX - 0 ft / 0 m 45.64444˚ 11.02639˚ 222 nm 222 nm 140° / 142° -
PES VOR - 0 ft / 0 m 42.43611˚ 14.18444˚ 235 nm 458 nm 144° / 146° PESCARA VOR-DME
O LIBP APT - 0 ft / 0 m 42.42261˚ 14.17399˚ 0 nm 459 nm 210° / 210° -

Altitude Profile

Advertisement - Login to hide

Weather


0- 5 10 15 20 25 30 35+ Temperature / ° C

Clouds and Precipitation
Forecast for 2017-12-17 06:00 UTC. Updated an hour ago

Ground ~20,000 ft ~40,000 ft Winds

LFST

Details ICAO LFST (SXB)
Name Entzheim
Region France
Timezone Europe/Paris (UTC+1.0)
Stats Elevation 504 ft / 154 m (AMSL)
Location 48.538335° 7.628265°
Runways 1
Magnetic Variation 2.105° E

METAR

LFST 170230Z AUTO VRB03KT 9999 FEW023 OVC047 02/01 Q1021 NOSIG

Decode

TAF

TAF LFST 162300Z 1700/1724 25004KT 9999 SCT020 BKN045 PROB30 TEMPO 1711/1714 -SHRASN BKN014 PROB30 TEMPO 1718/1724 4500 BR

Decode

Departure Runways

ID Width Length Bearing (true) Bearing (mag) Surface Threshold Offset Overrun Length
05 148 ft / 45 m 7,899 ft / 2,408 m 48.60° 46.50° Asphalt 0 ft / 0 m 860 ft / 262 m
23 148 ft / 45 m 7,899 ft / 2,408 m 228.62° 226.52° Asphalt 0 ft / 0 m 902 ft / 275 m

LIBP

Details ICAO LIBP (PSR)
Name PESCARA
Region Italy
Timezone Europe/Rome (UTC+1.0)
Stats Elevation 48 ft / 15 m (AMSL)
Location 42.431257° 14.183030°
Runways 1
Magnetic Variation 3.382° E

METAR

LIBP 170217Z AUTO 26006KT 230V290 9999 RA OVC023/// 06/04 Q1011

Decode

TAF

TAF LIBP 162300Z 1700/1724 31008KT 9999 SCT030 TEMPO 1700/1712 4000 SHRA BECMG 1706/1708 34018KT BECMG 1718/1720 34008KT

Decode

Destination Runways

ID Width Length Bearing (true) Bearing (mag) Surface Threshold Offset Overrun Length
04 148 ft / 45 m 7,943 ft / 2,421 m 37.19° 33.81° Asphalt 344 ft / 105 m 0 ft / 0 m
22 148 ft / 45 m 7,943 ft / 2,421 m 217.21° 213.83° Asphalt 617 ft / 188 m 0 ft / 0 m

Approach Navaids

Runway Type Ident Frequency Range Bearing (true) Bearing (mag) Slope Elevation
22 Localiser IPS 110.70 MHz 18 nm / 33 km 217.39° 214.01° - 48 ft / 15 m (AMSL)
22 Glidescope IPS 110.70 MHz 10 nm / 19 km 217.20° 213.82° 3.00° 48 ft / 15 m (AMSL)
22 DME IPS 110.70 MHz 18 nm / 33 km - - - 48 ft / 15 m (AMSL)